sensor_id;sensor_type;location;lat;lon;timestamp;P1;durP1;ratioP1;P2;durP2;ratioP2
10535;SDS011;5316;49.538;8.352;2022-11-22T00:00:12;5.90;;;2.70;;
10535;SDS011;5316;49.538;8.352;2022-11-22T00:02:41;7.40;;;3.30;;
10535;SDS011;5316;49.538;8.352;2022-11-22T00:05:08;9.97;;;3.03;;
10535;SDS011;5316;49.538;8.352;2022-11-22T00:07:35;4.07;;;2.80;;
10535;SDS011;5316;49.538;8.352;2022-11-22T00:10:02;8.83;;;3.00;;
10535;SDS011;5316;49.538;8.352;2022-11-22T00:12:30;6.30;;;2.90;;
10535;SDS011;5316;49.538;8.352;2022-11-22T00:14:57;7.30;;;3.00;;
10535;SDS011;5316;49.538;8.352;2022-11-22T00:17:23;9.70;;;3.30;;
10535;SDS011;5316;49.538;8.352;2022-11-22T00:19:52;7.57;;;3.00;;
10535;SDS011;5316;49.538;8.352;2022-11-22T00:22:18;8.33;;;3.37;;
10535;SDS011;5316;49.538;8.352;2022-11-22T00:24:45;5.30;;;2.53;;
10535;SDS011;5316;49.538;8.352;2022-11-22T00:27:12;8.10;;;3.20;;
10535;SDS011;5316;49.538;8.352;2022-11-22T00:29:39;8.63;;;2.83;;
10535;SDS011;5316;49.538;8.352;2022-11-22T00:32:06;5.43;;;3.00;;
10535;SDS011;5316;49.538;8.352;2022-11-22T00:34:33;4.93;;;2.53;;
10535;SDS011;5316;49.538;8.352;2022-11-22T00:37:01;7.20;;;2.90;;
10535;SDS011;5316;49.538;8.352;2022-11-22T00:39:28;4.70;;;3.03;;
10535;SDS011;5316;49.538;8.352;2022-11-22T00:41:54;9.10;;;3.20;;
10535;SDS011;5316;49.538;8.352;2022-11-22T00:44:21;6.00;;;2.30;;
10535;SDS011;5316;49.538;8.352;2022-11-22T05:49:15;12.47;;;2.37;;
10535;SDS011;5316;49.538;8.352;2022-11-22T05:52:58;8.67;;;2.10;;
10535;SDS011;5316;49.538;8.352;2022-11-22T05:59:23;12.30;;;3.13;;
10535;SDS011;5316;49.538;8.352;2022-11-22T06:03:05;14.20;;;2.20;;
10535;SDS011;5316;49.538;8.352;2022-11-22T06:47:12;10.43;;;2.00;;
10535;SDS011;5316;49.538;8.352;2022-11-22T06:49:38;8.33;;;2.27;;
10535;SDS011;5316;49.538;8.352;2022-11-22T06:52:05;9.17;;;1.80;;
10535;SDS011;5316;49.538;8.352;2022-11-22T06:54:32;14.40;;;2.60;;
10535;SDS011;5316;49.538;8.352;2022-11-22T06:56:58;11.40;;;2.20;;
10535;SDS011;5316;49.538;8.352;2022-11-22T06:59:25;10.37;;;2.20;;
10535;SDS011;5316;49.538;8.352;2022-11-22T07:01:52;12.27;;;2.67;;
10535;SDS011;5316;49.538;8.352;2022-11-22T07:04:20;14.83;;;2.93;;
10535;SDS011;5316;49.538;8.352;2022-11-22T07:06:47;11.33;;;2.13;;
10535;SDS011;5316;49.538;8.352;2022-11-22T07:09:14;7.77;;;1.73;;
10535;SDS011;5316;49.538;8.352;2022-11-22T07:11:41;11.03;;;2.50;;
10535;SDS011;5316;49.538;8.352;2022-11-22T07:14:08;10.10;;;2.30;;
10535;SDS011;5316;49.538;8.352;2022-11-22T07:16:35;9.40;;;1.97;;
10535;SDS011;5316;49.538;8.352;2022-11-22T07:19:02;10.80;;;2.47;;
10535;SDS011;5316;49.538;8.352;2022-11-22T07:21:31;8.73;;;2.33;;
10535;SDS011;5316;49.538;8.352;2022-11-22T07:23:58;11.23;;;2.00;;
10535;SDS011;5316;49.538;8.352;2022-11-22T07:26:25;10.93;;;1.93;;
10535;SDS011;5316;49.538;8.352;2022-11-22T07:28:52;17.90;;;7.60;;
10535;SDS011;5316;49.538;8.352;2022-11-22T07:31:19;13.10;;;3.17;;
10535;SDS011;5316;49.538;8.352;2022-11-22T07:33:46;12.37;;;2.40;;
10535;SDS011;5316;49.538;8.352;2022-11-22T07:36:14;6.20;;;1.93;;
10535;SDS011;5316;49.538;8.352;2022-11-22T07:38:43;9.57;;;2.30;;
10535;SDS011;5316;49.538;8.352;2022-11-22T07:41:11;11.07;;;2.07;;
10535;SDS011;5316;49.538;8.352;2022-11-22T07:43:39;8.10;;;2.00;;
10535;SDS011;5316;49.538;8.352;2022-11-22T07:46:06;7.60;;;2.00;;
10535;SDS011;5316;49.538;8.352;2022-11-22T07:48:39;9.77;;;2.10;;
10535;SDS011;5316;49.538;8.352;2022-11-22T07:51:06;12.47;;;3.17;;
10535;SDS011;5316;49.538;8.352;2022-11-22T07:53:33;8.53;;;2.30;;
10535;SDS011;5316;49.538;8.352;2022-11-22T07:56:02;7.40;;;2.00;;
10535;SDS011;5316;49.538;8.352;2022-11-22T07:58:30;8.37;;;2.67;;
10535;SDS011;5316;49.538;8.352;2022-11-22T08:00:57;7.63;;;1.83;;
10535;SDS011;5316;49.538;8.352;2022-11-22T08:03:23;6.37;;;1.80;;
10535;SDS011;5316;49.538;8.352;2022-11-22T08:05:50;11.97;;;1.57;;
10535;SDS011;5316;49.538;8.352;2022-11-22T08:08:24;7.83;;;1.83;;
10535;SDS011;5316;49.538;8.352;2022-11-22T08:10:50;8.53;;;2.07;;
10535;SDS011;5316;49.538;8.352;2022-11-22T08:13:18;6.57;;;1.70;;
10535;SDS011;5316;49.538;8.352;2022-11-22T08:15:45;11.47;;;2.10;;
10535;SDS011;5316;49.538;8.352;2022-11-22T08:18:13;9.30;;;1.60;;
10535;SDS011;5316;49.538;8.352;2022-11-22T08:20:40;7.57;;;2.10;;
10535;SDS011;5316;49.538;8.352;2022-11-22T08:23:07;7.87;;;2.33;;
10535;SDS011;5316;49.538;8.352;2022-11-22T08:25:33;20.80;;;9.10;;
10535;SDS011;5316;49.538;8.352;2022-11-22T08:28:00;11.30;;;2.80;;
10535;SDS011;5316;49.538;8.352;2022-11-22T08:30:28;8.63;;;2.63;;
10535;SDS011;5316;49.538;8.352;2022-11-22T08:32:55;7.50;;;2.00;;
10535;SDS011;5316;49.538;8.352;2022-11-22T08:35:22;4.97;;;1.57;;
10535;SDS011;5316;49.538;8.352;2022-11-22T08:37:49;7.70;;;1.80;;
10535;SDS011;5316;49.538;8.352;2022-11-22T08:40:20;6.17;;;1.77;;
10535;SDS011;5316;49.538;8.352;2022-11-22T08:42:47;8.90;;;2.00;;
10535;SDS011;5316;49.538;8.352;2022-11-22T08:45:14;6.40;;;1.60;;
10535;SDS011;5316;49.538;8.352;2022-11-22T08:47:42;9.33;;;2.00;;
10535;SDS011;5316;49.538;8.352;2022-11-22T08:50:09;8.30;;;2.17;;
10535;SDS011;5316;49.538;8.352;2022-11-22T08:52:36;9.47;;;2.33;;
10535;SDS011;5316;49.538;8.352;2022-11-22T08:55:03;9.03;;;1.93;;
10535;SDS011;5316;49.538;8.352;2022-11-22T08:57:30;9.03;;;2.57;;
10535;SDS011;5316;49.538;8.352;2022-11-22T08:59:57;8.60;;;2.33;;
10535;SDS011;5316;49.538;8.352;2022-11-22T09:02:24;13.30;;;2.00;;
10535;SDS011;5316;49.538;8.352;2022-11-22T09:04:52;8.07;;;1.73;;
10535;SDS011;5316;49.538;8.352;2022-11-22T09:07:19;8.63;;;1.90;;
10535;SDS011;5316;49.538;8.352;2022-11-22T09:09:46;8.47;;;2.60;;
10535;SDS011;5316;49.538;8.352;2022-11-22T09:12:12;7.53;;;1.60;;
10535;SDS011;5316;49.538;8.352;2022-11-22T09:14:39;10.53;;;1.80;;
10535;SDS011;5316;49.538;8.352;2022-11-22T09:17:07;9.87;;;2.03;;
10535;SDS011;5316;49.538;8.352;2022-11-22T09:19:34;8.30;;;2.13;;
10535;SDS011;5316;49.538;8.352;2022-11-22T09:22:02;8.40;;;2.27;;
10535;SDS011;5316;49.538;8.352;2022-11-22T09:24:29;11.00;;;1.87;;
10535;SDS011;5316;49.538;8.352;2022-11-22T09:26:56;5.93;;;1.53;;
10535;SDS011;5316;49.538;8.352;2022-11-22T09:29:22;7.73;;;1.57;;
10535;SDS011;5316;49.538;8.352;2022-11-22T09:31:50;5.40;;;1.87;;
10535;SDS011;5316;49.538;8.352;2022-11-22T09:34:17;8.17;;;2.40;;
10535;SDS011;5316;49.538;8.352;2022-11-22T09:36:44;9.87;;;2.70;;
10535;SDS011;5316;49.538;8.352;2022-11-22T09:39:17;7.13;;;2.13;;
10535;SDS011;5316;49.538;8.352;2022-11-22T09:44:55;12.13;;;2.63;;
10535;SDS011;5316;49.538;8.352;2022-11-22T09:47:46;10.87;;;5.53;;
10535;SDS011;5316;49.538;8.352;2022-11-22T09:50:23;11.23;;;2.27;;
10535;SDS011;5316;49.538;8.352;2022-11-22T09:52:56;9.13;;;2.03;;
10535;SDS011;5316;49.538;8.352;2022-11-22T09:55:29;6.87;;;1.67;;
10535;SDS011;5316;49.538;8.352;2022-11-22T09:58:01;8.27;;;1.60;;
10535;SDS011;5316;49.538;8.352;2022-11-22T10:00:33;9.70;;;1.50;;
10535;SDS011;5316;49.538;8.352;2022-11-22T10:03:04;5.77;;;1.53;;
10535;SDS011;5316;49.538;8.352;2022-11-22T10:05:47;8.87;;;1.53;;
10535;SDS011;5316;49.538;8.352;2022-11-22T10:08:27;13.27;;;1.70;;
10535;SDS011;5316;49.538;8.352;2022-11-22T10:11:00;6.73;;;2.10;;
10535;SDS011;5316;49.538;8.352;2022-11-22T10:13:33;7.37;;;2.00;;
10535;SDS011;5316;49.538;8.352;2022-11-22T10:16:06;7.37;;;2.13;;
10535;SDS011;5316;49.538;8.352;2022-11-22T10:18:38;9.63;;;1.67;;
10535;SDS011;5316;49.538;8.352;2022-11-22T10:21:09;6.90;;;1.83;;
10535;SDS011;5316;49.538;8.352;2022-11-22T10:23:38;6.37;;;2.03;;
10535;SDS011;5316;49.538;8.352;2022-11-22T10:26:13;6.63;;;2.37;;
10535;SDS011;5316;49.538;8.352;2022-11-22T10:28:50;11.03;;;2.13;;
10535;SDS011;5316;49.538;8.352;2022-11-22T10:31:31;10.80;;;2.37;;
10535;SDS011;5316;49.538;8.352;2022-11-22T10:34:02;11.63;;;2.40;;
10535;SDS011;5316;49.538;8.352;2022-11-22T10:36:36;13.23;;;4.00;;
10535;SDS011;5316;49.538;8.352;2022-11-22T10:39:15;11.00;;;3.00;;
10535;SDS011;5316;49.538;8.352;2022-11-22T10:41:53;8.07;;;2.23;;
10535;SDS011;5316;49.538;8.352;2022-11-22T10:44:34;8.23;;;2.00;;
10535;SDS011;5316;49.538;8.352;2022-11-22T10:47:11;9.80;;;2.33;;
10535;SDS011;5316;49.538;8.352;2022-11-22T10:49:45;12.73;;;2.70;;
10535;SDS011;5316;49.538;8.352;2022-11-22T10:52:22;6.20;;;2.37;;
10535;SDS011;5316;49.538;8.352;2022-11-22T10:55:00;5.97;;;1.73;;
10535;SDS011;5316;49.538;8.352;2022-11-22T10:57:43;5.50;;;1.50;;
10535;SDS011;5316;49.538;8.352;2022-11-22T11:00:18;4.00;;;1.50;;
10535;SDS011;5316;49.538;8.352;2022-11-22T11:02:57;9.73;;;1.37;;
10535;SDS011;5316;49.538;8.352;2022-11-22T11:05:54;9.00;;;1.50;;
10535;SDS011;5316;49.538;8.352;2022-11-22T11:08:28;6.03;;;1.53;;
10535;SDS011;5316;49.538;8.352;2022-11-22T11:11:01;5.43;;;1.50;;
10535;SDS011;5316;49.538;8.352;2022-11-22T11:13:30;5.17;;;1.30;;
10535;SDS011;5316;49.538;8.352;2022-11-22T11:16:00;5.57;;;1.40;;
10535;SDS011;5316;49.538;8.352;2022-11-22T11:18:30;6.47;;;1.30;;
10535;SDS011;5316;49.538;8.352;2022-11-22T11:21:04;8.47;;;1.23;;
10535;SDS011;5316;49.538;8.352;2022-11-22T11:23:31;7.57;;;1.30;;
10535;SDS011;5316;49.538;8.352;2022-11-22T11:26:12;6.97;;;1.70;;
10535;SDS011;5316;49.538;8.352;2022-11-22T11:28:51;5.43;;;1.50;;
10535;SDS011;5316;49.538;8.352;2022-11-22T11:32:03;6.20;;;1.50;;
10535;SDS011;5316;49.538;8.352;2022-11-22T11:34:33;5.67;;;1.20;;
10535;SDS011;5316;49.538;8.352;2022-11-22T11:37:00;3.50;;;1.20;;
10535;SDS011;5316;49.538;8.352;2022-11-22T11:39:30;5.37;;;1.30;;
10535;SDS011;5316;49.538;8.352;2022-11-22T11:41:58;6.60;;;1.57;;
10535;SDS011;5316;49.538;8.352;2022-11-22T11:44:27;5.23;;;1.60;;
10535;SDS011;5316;49.538;8.352;2022-11-22T11:46:57;5.17;;;1.30;;
10535;SDS011;5316;49.538;8.352;2022-11-22T11:49:24;8.30;;;1.30;;
10535;SDS011;5316;49.538;8.352;2022-11-22T11:51:53;3.67;;;1.10;;
10535;SDS011;5316;49.538;8.352;2022-11-22T11:54:22;3.50;;;1.07;;
10535;SDS011;5316;49.538;8.352;2022-11-22T11:56:51;6.67;;;1.20;;
10535;SDS011;5316;49.538;8.352;2022-11-22T11:59:22;5.63;;;1.60;;
10535;SDS011;5316;49.538;8.352;2022-11-22T12:01:56;4.07;;;1.10;;
10535;SDS011;5316;49.538;8.352;2022-11-22T12:04:28;3.77;;;1.20;;
10535;SDS011;5316;49.538;8.352;2022-11-22T12:06:59;3.17;;;1.07;;
10535;SDS011;5316;49.538;8.352;2022-11-22T12:12:55;5.47;;;1.23;;
10535;SDS011;5316;49.538;8.352;2022-11-22T12:15:27;4.27;;;1.20;;
10535;SDS011;5316;49.538;8.352;2022-11-22T12:18:06;5.33;;;1.30;;
10535;SDS011;5316;49.538;8.352;2022-11-22T12:20:49;4.60;;;1.10;;
10535;SDS011;5316;49.538;8.352;2022-11-22T12:23:22;2.00;;;0.80;;
10535;SDS011;5316;49.538;8.352;2022-11-22T12:25:56;4.20;;;1.80;;
10535;SDS011;5316;49.538;8.352;2022-11-22T12:31:00;6.47;;;2.10;;
10535;SDS011;5316;49.538;8.352;2022-11-22T12:33:35;4.43;;;1.30;;
10535;SDS011;5316;49.538;8.352;2022-11-22T12:36:07;3.00;;;1.10;;
10535;SDS011;5316;49.538;8.352;2022-11-22T12:38:40;3.07;;;0.80;;
10535;SDS011;5316;49.538;8.352;2022-11-22T12:41:10;2.40;;;1.13;;
10535;SDS011;5316;49.538;8.352;2022-11-22T12:46:15;5.43;;;1.33;;
10535;SDS011;5316;49.538;8.352;2022-11-22T12:48:48;4.47;;;1.30;;
10535;SDS011;5316;49.538;8.352;2022-11-22T12:51:20;4.90;;;1.20;;
10535;SDS011;5316;49.538;8.352;2022-11-22T12:53:51;6.80;;;1.57;;
10535;SDS011;5316;49.538;8.352;2022-11-22T12:56:24;6.30;;;1.70;;
10535;SDS011;5316;49.538;8.352;2022-11-22T12:58:56;6.07;;;1.93;;
10535;SDS011;5316;49.538;8.352;2022-11-22T13:01:28;9.33;;;1.40;;
10535;SDS011;5316;49.538;8.352;2022-11-22T13:04:02;4.33;;;1.20;;
10535;SDS011;5316;49.538;8.352;2022-11-22T13:06:39;4.23;;;1.10;;
10535;SDS011;5316;49.538;8.352;2022-11-22T13:09:11;3.73;;;1.00;;
10535;SDS011;5316;49.538;8.352;2022-11-22T13:11:44;7.70;;;1.30;;
10535;SDS011;5316;49.538;8.352;2022-11-22T13:14:15;3.17;;;1.00;;
10535;SDS011;5316;49.538;8.352;2022-11-22T13:16:45;3.90;;;1.20;;
10535;SDS011;5316;49.538;8.352;2022-11-22T13:19:14;7.30;;;1.30;;
10535;SDS011;5316;49.538;8.352;2022-11-22T13:21:59;6.37;;;1.60;;
10535;SDS011;5316;49.538;8.352;2022-11-22T13:24:34;5.73;;;1.30;;
10535;SDS011;5316;49.538;8.352;2022-11-22T13:27:11;6.87;;;1.57;;
10535;SDS011;5316;49.538;8.352;2022-11-22T13:29:46;4.80;;;1.13;;
10535;SDS011;5316;49.538;8.352;2022-11-22T13:32:19;7.40;;;1.40;;
10535;SDS011;5316;49.538;8.352;2022-11-22T13:35:16;7.53;;;1.57;;
10535;SDS011;5316;49.538;8.352;2022-11-22T13:37:51;3.57;;;1.23;;
10535;SDS011;5316;49.538;8.352;2022-11-22T13:43:54;4.33;;;1.00;;
10535;SDS011;5316;49.538;8.352;2022-11-22T13:49:33;6.17;;;1.10;;
10535;SDS011;5316;49.538;8.352;2022-11-22T13:52:03;5.73;;;1.87;;
10535;SDS011;5316;49.538;8.352;2022-11-22T13:54:59;3.87;;;1.10;;
10535;SDS011;5316;49.538;8.352;2022-11-22T13:57:37;5.37;;;1.10;;
10535;SDS011;5316;49.538;8.352;2022-11-22T14:03:15;5.47;;;1.33;;
10535;SDS011;5316;49.538;8.352;2022-11-22T14:05:47;5.50;;;1.43;;
10535;SDS011;5316;49.538;8.352;2022-11-22T14:08:25;3.90;;;1.23;;
10535;SDS011;5316;49.538;8.352;2022-11-22T14:11:04;5.03;;;1.00;;
10535;SDS011;5316;49.538;8.352;2022-11-22T14:13:38;4.73;;;1.30;;
10535;SDS011;5316;49.538;8.352;2022-11-22T14:16:19;4.23;;;1.20;;
10535;SDS011;5316;49.538;8.352;2022-11-22T14:18:53;3.87;;;1.40;;
10535;SDS011;5316;49.538;8.352;2022-11-22T14:21:38;3.27;;;1.00;;
10535;SDS011;5316;49.538;8.352;2022-11-22T14:24:12;3.20;;;0.97;;
10535;SDS011;5316;49.538;8.352;2022-11-22T14:26:52;5.77;;;1.00;;
10535;SDS011;5316;49.538;8.352;2022-11-22T14:29:39;1.60;;;0.83;;
10535;SDS011;5316;49.538;8.352;2022-11-22T14:32:18;3.53;;;0.93;;
10535;SDS011;5316;49.538;8.352;2022-11-22T14:38:01;4.20;;;1.27;;
10535;SDS011;5316;49.538;8.352;2022-11-22T14:40:31;2.17;;;0.80;;
10535;SDS011;5316;49.538;8.352;2022-11-22T14:43:02;3.63;;;1.80;;
10535;SDS011;5316;49.538;8.352;2022-11-22T14:45:42;2.87;;;0.83;;
10535;SDS011;5316;49.538;8.352;2022-11-22T14:48:14;4.13;;;0.80;;
10535;SDS011;5316;49.538;8.352;2022-11-22T14:50:44;5.03;;;0.87;;
10535;SDS011;5316;49.538;8.352;2022-11-22T14:53:17;5.77;;;4.97;;
10535;SDS011;5316;49.538;8.352;2022-11-22T14:55:50;8.13;;;6.07;;
10535;SDS011;5316;49.538;8.352;2022-11-22T14:58:23;6.17;;;4.60;;
10535;SDS011;5316;49.538;8.352;2022-11-22T15:00:57;4.93;;;1.90;;
10535;SDS011;5316;49.538;8.352;2022-11-22T15:04:02;1.27;;;1.00;;
10535;SDS011;5316;49.538;8.352;2022-11-22T15:06:52;2.20;;;0.80;;
10535;SDS011;5316;49.538;8.352;2022-11-22T15:09:41;2.13;;;0.80;;
10535;SDS011;5316;49.538;8.352;2022-11-22T15:15:30;2.60;;;0.80;;
10535;SDS011;5316;49.538;8.352;2022-11-22T15:18:06;1.77;;;0.70;;
10535;SDS011;5316;49.538;8.352;2022-11-22T15:20:40;2.43;;;0.80;;
10535;SDS011;5316;49.538;8.352;2022-11-22T15:23:12;2.83;;;1.10;;
10535;SDS011;5316;49.538;8.352;2022-11-22T15:25:43;2.03;;;1.10;;
10535;SDS011;5316;49.538;8.352;2022-11-22T15:28:11;2.13;;;0.80;;
10535;SDS011;5316;49.538;8.352;2022-11-22T15:30:40;3.50;;;0.80;;
10535;SDS011;5316;49.538;8.352;2022-11-22T15:33:13;3.50;;;1.07;;
10535;SDS011;5316;49.538;8.352;2022-11-22T15:36:05;1.33;;;0.80;;
10535;SDS011;5316;49.538;8.352;2022-11-22T15:38:44;3.63;;;1.20;;
10535;SDS011;5316;49.538;8.352;2022-11-22T15:41:14;1.77;;;1.10;;
10535;SDS011;5316;49.538;8.352;2022-11-22T15:43:43;0.93;;;0.70;;
10535;SDS011;5316;49.538;8.352;2022-11-22T15:46:13;4.93;;;2.87;;
10535;SDS011;5316;49.538;8.352;2022-11-22T15:48:45;2.33;;;0.90;;
10535;SDS011;5316;49.538;8.352;2022-11-22T15:51:20;1.83;;;0.90;;
10535;SDS011;5316;49.538;8.352;2022-11-22T15:56:45;3.93;;;1.27;;
10535;SDS011;5316;49.538;8.352;2022-11-22T15:59:19;2.80;;;1.13;;
10535;SDS011;5316;49.538;8.352;2022-11-22T16:01:56;1.80;;;1.03;;
10535;SDS011;5316;49.538;8.352;2022-11-22T16:04:26;4.53;;;1.43;;
10535;SDS011;5316;49.538;8.352;2022-11-22T16:06:55;1.97;;;1.00;;
10535;SDS011;5316;49.538;8.352;2022-11-22T16:09:25;3.53;;;1.50;;
10535;SDS011;5316;49.538;8.352;2022-11-22T16:11:56;9.07;;;4.90;;
10535;SDS011;5316;49.538;8.352;2022-11-22T16:17:48;9.27;;;6.77;;
10535;SDS011;5316;49.538;8.352;2022-11-22T16:20:24;3.83;;;3.10;;
10535;SDS011;5316;49.538;8.352;2022-11-22T16:23:03;2.10;;;1.30;;
10535;SDS011;5316;49.538;8.352;2022-11-22T16:25:40;2.03;;;1.20;;
10535;SDS011;5316;49.538;8.352;2022-11-22T16:28:19;4.03;;;1.27;;
10535;SDS011;5316;49.538;8.352;2022-11-22T16:30:49;3.97;;;1.20;;
10535;SDS011;5316;49.538;8.352;2022-11-22T16:33:19;3.03;;;0.90;;
10535;SDS011;5316;49.538;8.352;2022-11-22T16:35:50;1.20;;;0.90;;
10535;SDS011;5316;49.538;8.352;2022-11-22T16:38:17;1.67;;;1.10;;
10535;SDS011;5316;49.538;8.352;2022-11-22T16:40:44;3.37;;;1.13;;
10535;SDS011;5316;49.538;8.352;2022-11-22T16:43:13;4.07;;;1.83;;
10535;SDS011;5316;49.538;8.352;2022-11-22T16:45:41;4.43;;;1.80;;
10535;SDS011;5316;49.538;8.352;2022-11-22T16:48:10;3.13;;;1.20;;
10535;SDS011;5316;49.538;8.352;2022-11-22T16:50:42;2.27;;;1.90;;
10535;SDS011;5316;49.538;8.352;2022-11-22T16:53:11;4.67;;;2.23;;
10535;SDS011;5316;49.538;8.352;2022-11-22T16:55:39;2.80;;;1.60;;
10535;SDS011;5316;49.538;8.352;2022-11-22T16:58:13;5.00;;;1.60;;
10535;SDS011;5316;49.538;8.352;2022-11-22T17:00:42;2.20;;;1.60;;
10535;SDS011;5316;49.538;8.352;2022-11-22T17:03:10;3.63;;;1.63;;
10535;SDS011;5316;49.538;8.352;2022-11-22T17:05:42;4.70;;;2.90;;
10535;SDS011;5316;49.538;8.352;2022-11-22T17:08:11;5.17;;;2.67;;
10535;SDS011;5316;49.538;8.352;2022-11-22T17:10:40;5.07;;;3.20;;
10535;SDS011;5316;49.538;8.352;2022-11-22T17:13:17;2.50;;;1.37;;
10535;SDS011;5316;49.538;8.352;2022-11-22T17:15:46;2.53;;;1.50;;
10535;SDS011;5316;49.538;8.352;2022-11-22T17:18:13;8.23;;;4.47;;
10535;SDS011;5316;49.538;8.352;2022-11-22T17:20:40;3.67;;;1.60;;
10535;SDS011;5316;49.538;8.352;2022-11-22T17:23:11;11.03;;;4.70;;
10535;SDS011;5316;49.538;8.352;2022-11-22T17:25:41;6.07;;;2.20;;
10535;SDS011;5316;49.538;8.352;2022-11-22T17:28:08;3.03;;;1.50;;
10535;SDS011;5316;49.538;8.352;2022-11-22T17:30:35;4.07;;;1.20;;
10535;SDS011;5316;49.538;8.352;2022-11-22T17:33:02;2.33;;;1.17;;
10535;SDS011;5316;49.538;8.352;2022-11-22T17:35:29;2.43;;;1.47;;
10535;SDS011;5316;49.538;8.352;2022-11-22T17:37:57;4.83;;;2.30;;
10535;SDS011;5316;49.538;8.352;2022-11-22T17:40:24;4.07;;;1.90;;
10535;SDS011;5316;49.538;8.352;2022-11-22T17:42:51;2.27;;;1.60;;
10535;SDS011;5316;49.538;8.352;2022-11-22T17:45:18;3.43;;;1.63;;
10535;SDS011;5316;49.538;8.352;2022-11-22T17:47:45;2.43;;;1.37;;
10535;SDS011;5316;49.538;8.352;2022-11-22T17:50:12;2.83;;;2.10;;
10535;SDS011;5316;49.538;8.352;2022-11-22T17:52:39;3.00;;;2.37;;
10535;SDS011;5316;49.538;8.352;2022-11-22T17:55:07;3.57;;;1.80;;
10535;SDS011;5316;49.538;8.352;2022-11-22T17:57:35;2.77;;;1.47;;
10535;SDS011;5316;49.538;8.352;2022-11-22T18:00:03;4.83;;;1.80;;
10535;SDS011;5316;49.538;8.352;2022-11-22T18:02:31;4.20;;;1.87;;
10535;SDS011;5316;49.538;8.352;2022-11-22T18:04:58;2.13;;;1.50;;
10535;SDS011;5316;49.538;8.352;2022-11-22T18:07:29;3.07;;;1.43;;
10535;SDS011;5316;49.538;8.352;2022-11-22T18:09:57;2.23;;;1.50;;
10535;SDS011;5316;49.538;8.352;2022-11-22T18:12:25;5.57;;;3.17;;
10535;SDS011;5316;49.538;8.352;2022-11-22T18:14:52;4.63;;;2.00;;
10535;SDS011;5316;49.538;8.352;2022-11-22T18:17:19;5.40;;;3.00;;
10535;SDS011;5316;49.538;8.352;2022-11-22T18:19:45;5.10;;;2.73;;
10535;SDS011;5316;49.538;8.352;2022-11-22T18:22:12;3.63;;;3.13;;
10535;SDS011;5316;49.538;8.352;2022-11-22T18:24:39;6.37;;;2.80;;
10535;SDS011;5316;49.538;8.352;2022-11-22T18:27:06;4.57;;;2.10;;
10535;SDS011;5316;49.538;8.352;2022-11-22T18:29:34;4.70;;;2.23;;
10535;SDS011;5316;49.538;8.352;2022-11-22T18:32:01;6.33;;;1.63;;
10535;SDS011;5316;49.538;8.352;2022-11-22T18:34:28;3.97;;;2.50;;
10535;SDS011;5316;49.538;8.352;2022-11-22T18:36:56;4.40;;;2.67;;
10535;SDS011;5316;49.538;8.352;2022-11-22T18:39:23;5.13;;;3.40;;
10535;SDS011;5316;49.538;8.352;2022-11-22T18:41:50;3.50;;;2.20;;
10535;SDS011;5316;49.538;8.352;2022-11-22T18:44:17;4.40;;;3.03;;
